sensor_id;sensor_type;location;lat;lon;timestamp;temperature;humidity
21481;DHT22;10902;48.158;8.634;2023-04-03T00:01:00;1.50;99.90
21481;DHT22;10902;48.158;8.634;2023-04-03T00:03:26;1.40;99.90
21481;DHT22;10902;48.158;8.634;2023-04-03T00:05:51;1.40;99.90
21481;DHT22;10902;48.158;8.634;2023-04-03T00:08:17;1.40;99.90
21481;DHT22;10902;48.158;8.634;2023-04-03T00:10:43;1.40;99.90
21481;DHT22;10902;48.158;8.634;2023-04-03T00:13:09;1.30;99.90
21481;DHT22;10902;48.158;8.634;2023-04-03T00:15:36;1.50;99.90
21481;DHT22;10902;48.158;8.634;2023-04-03T00:18:02;1.40;99.90
21481;DHT22;10902;48.158;8.634;2023-04-03T00:20:28;1.40;99.90
21481;DHT22;10902;48.158;8.634;2023-04-03T00:22:54;1.40;99.90
21481;DHT22;10902;48.158;8.634;2023-04-03T00:25:20;1.60;99.90
21481;DHT22;10902;48.158;8.634;2023-04-03T00:27:46;1.60;99.90
21481;DHT22;10902;48.158;8.634;2023-04-03T00:30:14;1.60;99.90
21481;DHT22;10902;48.158;8.634;2023-04-03T00:32:40;1.60;99.90
21481;DHT22;10902;48.158;8.634;2023-04-03T00:35:07;1.40;99.90
21481;DHT22;10902;48.158;8.634;2023-04-03T00:37:32;1.40;99.90
21481;DHT22;10902;48.158;8.634;2023-04-03T00:39:59;1.50;99.90
21481;DHT22;10902;48.158;8.634;2023-04-03T00:42:25;1.50;99.90
21481;DHT22;10902;48.158;8.634;2023-04-03T00:47:23;1.60;99.90
21481;DHT22;10902;48.158;8.634;2023-04-03T00:49:50;1.70;99.90
21481;DHT22;10902;48.158;8.634;2023-04-03T00:52:18;1.60;99.90
21481;DHT22;10902;48.158;8.634;2023-04-03T00:54:47;1.50;99.90
21481;DHT22;10902;48.158;8.634;2023-04-03T00:57:14;1.50;99.90
21481;DHT22;10902;48.158;8.634;2023-04-03T00:59:49;1.50;99.90
21481;DHT22;10902;48.158;8.634;2023-04-03T01:02:17;1.60;99.90
21481;DHT22;10902;48.158;8.634;2023-04-03T01:04:43;1.40;99.90
21481;DHT22;10902;48.158;8.634;2023-04-03T01:07:20;1.50;99.90
21481;DHT22;10902;48.158;8.634;2023-04-03T01:09:48;1.60;99.90
21481;DHT22;10902;48.158;8.634;2023-04-03T01:12:16;1.50;99.90
21481;DHT22;10902;48.158;8.634;2023-04-03T01:14:43;1.40;99.90
21481;DHT22;10902;48.158;8.634;2023-04-03T01:17:39;1.40;99.90
21481;DHT22;10902;48.158;8.634;2023-04-03T01:25:44;1.30;99.90
21481;DHT22;10902;48.158;8.634;2023-04-03T01:28:44;1.20;99.90
21481;DHT22;10902;48.158;8.634;2023-04-03T01:34:01;1.20;99.90
21481;DHT22;10902;48.158;8.634;2023-04-03T01:36:29;1.40;99.90
21481;DHT22;10902;48.158;8.634;2023-04-03T01:38:57;1.20;99.90
21481;DHT22;10902;48.158;8.634;2023-04-03T01:41:23;1.30;99.90
21481;DHT22;10902;48.158;8.634;2023-04-03T01:43:49;1.30;99.90
21481;DHT22;10902;48.158;8.634;2023-04-03T01:46:16;1.40;99.90
21481;DHT22;10902;48.158;8.634;2023-04-03T01:48:42;1.30;99.90
21481;DHT22;10902;48.158;8.634;2023-04-03T01:51:07;1.50;99.90
21481;DHT22;10902;48.158;8.634;2023-04-03T01:53:33;1.40;99.90
21481;DHT22;10902;48.158;8.634;2023-04-03T01:55:59;1.50;99.90
21481;DHT22;10902;48.158;8.634;2023-04-03T01:58:25;1.40;99.90
21481;DHT22;10902;48.158;8.634;2023-04-03T02:00:51;1.50;99.90
21481;DHT22;10902;48.158;8.634;2023-04-03T02:03:18;1.50;99.90
21481;DHT22;10902;48.158;8.634;2023-04-03T02:05:44;1.30;99.90
21481;DHT22;10902;48.158;8.634;2023-04-03T02:08:09;1.30;99.90
21481;DHT22;10902;48.158;8.634;2023-04-03T02:10:36;1.30;99.90
21481;DHT22;10902;48.158;8.634;2023-04-03T02:13:01;1.30;99.90
21481;DHT22;10902;48.158;8.634;2023-04-03T02:15:27;1.30;99.90
21481;DHT22;10902;48.158;8.634;2023-04-03T02:17:52;1.30;99.90
21481;DHT22;10902;48.158;8.634;2023-04-03T02:20:18;1.30;99.90
21481;DHT22;10902;48.158;8.634;2023-04-03T02:22:44;1.40;99.90
21481;DHT22;10902;48.158;8.634;2023-04-03T02:25:10;1.40;99.90
21481;DHT22;10902;48.158;8.634;2023-04-03T02:27:36;1.30;99.90
21481;DHT22;10902;48.158;8.634;2023-04-03T02:30:03;1.50;99.90
21481;DHT22;10902;48.158;8.634;2023-04-03T02:32:28;1.40;99.90
21481;DHT22;10902;48.158;8.634;2023-04-03T02:34:54;1.30;99.90
21481;DHT22;10902;48.158;8.634;2023-04-03T02:37:19;1.40;99.90
21481;DHT22;10902;48.158;8.634;2023-04-03T02:39:46;1.30;99.90
21481;DHT22;10902;48.158;8.634;2023-04-03T02:42:11;1.20;99.90
21481;DHT22;10902;48.158;8.634;2023-04-03T02:44:37;1.20;99.90
21481;DHT22;10902;48.158;8.634;2023-04-03T02:47:02;1.20;99.90
21481;DHT22;10902;48.158;8.634;2023-04-03T02:49:28;1.10;99.90
21481;DHT22;10902;48.158;8.634;2023-04-03T02:51:54;1.10;99.90
21481;DHT22;10902;48.158;8.634;2023-04-03T02:54:19;1.10;99.90
21481;DHT22;10902;48.158;8.634;2023-04-03T02:56:45;1.10;99.90
21481;DHT22;10902;48.158;8.634;2023-04-03T02:59:10;1.10;99.90
21481;DHT22;10902;48.158;8.634;2023-04-03T03:01:36;1.10;99.90
21481;DHT22;10902;48.158;8.634;2023-04-03T03:04:02;1.10;99.90
21481;DHT22;10902;48.158;8.634;2023-04-03T03:06:28;1.10;99.90
21481;DHT22;10902;48.158;8.634;2023-04-03T03:08:53;1.10;99.90
21481;DHT22;10902;48.158;8.634;2023-04-03T03:11:19;1.20;99.90
21481;DHT22;10902;48.158;8.634;2023-04-03T03:13:45;1.00;99.90
21481;DHT22;10902;48.158;8.634;2023-04-03T03:16:10;1.00;99.90
21481;DHT22;10902;48.158;8.634;2023-04-03T03:18:36;1.00;99.90
21481;DHT22;10902;48.158;8.634;2023-04-03T03:21:03;0.90;99.90
21481;DHT22;10902;48.158;8.634;2023-04-03T03:23:30;1.10;99.90
21481;DHT22;10902;48.158;8.634;2023-04-03T03:25:58;1.30;99.90
21481;DHT22;10902;48.158;8.634;2023-04-03T03:28:24;1.30;99.90
21481;DHT22;10902;48.158;8.634;2023-04-03T03:30:50;1.40;99.90
21481;DHT22;10902;48.158;8.634;2023-04-03T03:33:16;1.20;99.90
21481;DHT22;10902;48.158;8.634;2023-04-03T03:35:42;1.20;99.90
21481;DHT22;10902;48.158;8.634;2023-04-03T03:38:08;1.20;99.90
21481;DHT22;10902;48.158;8.634;2023-04-03T03:40:34;1.30;99.90
21481;DHT22;10902;48.158;8.634;2023-04-03T03:42:59;1.20;99.90
21481;DHT22;10902;48.158;8.634;2023-04-03T03:45:25;1.30;99.90
21481;DHT22;10902;48.158;8.634;2023-04-03T03:47:50;1.20;99.90
21481;DHT22;10902;48.158;8.634;2023-04-03T03:50:16;1.10;99.90
21481;DHT22;10902;48.158;8.634;2023-04-03T03:52:42;1.10;99.90
21481;DHT22;10902;48.158;8.634;2023-04-03T03:55:07;1.00;99.90
21481;DHT22;10902;48.158;8.634;2023-04-03T03:57:33;1.10;99.90
21481;DHT22;10902;48.158;8.634;2023-04-03T03:59:59;1.00;99.90
21481;DHT22;10902;48.158;8.634;2023-04-03T04:02:25;1.00;99.90
21481;DHT22;10902;48.158;8.634;2023-04-03T04:04:50;1.00;99.90
21481;DHT22;10902;48.158;8.634;2023-04-03T04:07:16;0.90;99.90
21481;DHT22;10902;48.158;8.634;2023-04-03T04:09:41;0.90;99.90
21481;DHT22;10902;48.158;8.634;2023-04-03T04:12:07;0.90;99.90
21481;DHT22;10902;48.158;8.634;2023-04-03T04:14:33;0.90;99.90
21481;DHT22;10902;48.158;8.634;2023-04-03T04:16:58;0.90;99.90
21481;DHT22;10902;48.158;8.634;2023-04-03T04:19:24;1.00;99.90
21481;DHT22;10902;48.158;8.634;2023-04-03T04:21:49;0.90;99.90
21481;DHT22;10902;48.158;8.634;2023-04-03T04:24:15;0.90;99.90
21481;DHT22;10902;48.158;8.634;2023-04-03T04:26:41;0.90;99.90
21481;DHT22;10902;48.158;8.634;2023-04-03T04:29:09;0.90;99.90
21481;DHT22;10902;48.158;8.634;2023-04-03T04:31:35;0.90;99.90
21481;DHT22;10902;48.158;8.634;2023-04-03T04:34:00;0.80;99.90
21481;DHT22;10902;48.158;8.634;2023-04-03T04:36:26;0.80;99.90
21481;DHT22;10902;48.158;8.634;2023-04-03T04:38:52;0.90;99.90
21481;DHT22;10902;48.158;8.634;2023-04-03T04:41:20;0.90;99.90
21481;DHT22;10902;48.158;8.634;2023-04-03T04:43:48;0.90;99.90
21481;DHT22;10902;48.158;8.634;2023-04-03T04:46:14;0.90;99.90
21481;DHT22;10902;48.158;8.634;2023-04-03T04:48:39;1.00;99.90
21481;DHT22;10902;48.158;8.634;2023-04-03T04:51:05;1.00;99.90
21481;DHT22;10902;48.158;8.634;2023-04-03T04:53:31;0.90;99.90
21481;DHT22;10902;48.158;8.634;2023-04-03T04:55:56;1.00;99.90
21481;DHT22;10902;48.158;8.634;2023-04-03T04:58:22;0.90;99.90
21481;DHT22;10902;48.158;8.634;2023-04-03T05:00:48;1.00;99.90
21481;DHT22;10902;48.158;8.634;2023-04-03T05:03:13;1.00;99.90
21481;DHT22;10902;48.158;8.634;2023-04-03T05:05:39;1.00;99.90
21481;DHT22;10902;48.158;8.634;2023-04-03T05:08:05;1.10;99.90
21481;DHT22;10902;48.158;8.634;2023-04-03T05:10:30;1.00;99.90
21481;DHT22;10902;48.158;8.634;2023-04-03T05:12:57;1.00;99.90
21481;DHT22;10902;48.158;8.634;2023-04-03T05:15:22;0.90;99.90
21481;DHT22;10902;48.158;8.634;2023-04-03T05:17:48;0.90;99.90
21481;DHT22;10902;48.158;8.634;2023-04-03T05:20:14;1.00;99.90
21481;DHT22;10902;48.158;8.634;2023-04-03T05:22:39;1.00;99.90
21481;DHT22;10902;48.158;8.634;2023-04-03T05:25:06;1.00;99.90
21481;DHT22;10902;48.158;8.634;2023-04-03T05:27:31;1.00;99.90
21481;DHT22;10902;48.158;8.634;2023-04-03T05:29:57;1.10;99.90
21481;DHT22;10902;48.158;8.634;2023-04-03T05:32:23;0.90;99.90
21481;DHT22;10902;48.158;8.634;2023-04-03T05:34:50;0.90;99.90
21481;DHT22;10902;48.158;8.634;2023-04-03T05:37:16;0.90;99.90
21481;DHT22;10902;48.158;8.634;2023-04-03T05:39:41;1.00;99.90
21481;DHT22;10902;48.158;8.634;2023-04-03T05:42:07;1.00;99.90
21481;DHT22;10902;48.158;8.634;2023-04-03T05:44:33;0.90;99.90
21481;DHT22;10902;48.158;8.634;2023-04-03T05:46:59;0.90;99.90
21481;DHT22;10902;48.158;8.634;2023-04-03T05:49:25;0.90;99.90
21481;DHT22;10902;48.158;8.634;2023-04-03T05:51:51;1.00;99.90
21481;DHT22;10902;48.158;8.634;2023-04-03T05:54:23;1.00;99.90
21481;DHT22;10902;48.158;8.634;2023-04-03T05:56:50;0.80;99.90
21481;DHT22;10902;48.158;8.634;2023-04-03T05:59:16;0.90;99.90
21481;DHT22;10902;48.158;8.634;2023-04-03T06:01:42;0.80;99.90
21481;DHT22;10902;48.158;8.634;2023-04-03T06:04:07;0.80;99.90
21481;DHT22;10902;48.158;8.634;2023-04-03T06:06:56;0.90;99.90
21481;DHT22;10902;48.158;8.634;2023-04-03T06:09:24;0.90;99.90
21481;DHT22;10902;48.158;8.634;2023-04-03T06:11:50;1.00;99.90
21481;DHT22;10902;48.158;8.634;2023-04-03T06:14:16;1.00;99.90
21481;DHT22;10902;48.158;8.634;2023-04-03T06:16:42;1.00;99.90
21481;DHT22;10902;48.158;8.634;2023-04-03T06:19:09;1.00;99.90
21481;DHT22;10902;48.158;8.634;2023-04-03T06:21:35;1.00;99.90
21481;DHT22;10902;48.158;8.634;2023-04-03T06:24:04;1.10;99.90
21481;DHT22;10902;48.158;8.634;2023-04-03T06:26:31;1.10;99.90
21481;DHT22;10902;48.158;8.634;2023-04-03T06:28:57;1.10;99.90
21481;DHT22;10902;48.158;8.634;2023-04-03T06:31:22;1.20;99.90
21481;DHT22;10902;48.158;8.634;2023-04-03T06:33:48;1.20;99.90
21481;DHT22;10902;48.158;8.634;2023-04-03T06:36:14;1.10;99.90
21481;DHT22;10902;48.158;8.634;2023-04-03T06:38:40;1.20;99.90
21481;DHT22;10902;48.158;8.634;2023-04-03T06:41:05;1.20;99.90
21481;DHT22;10902;48.158;8.634;2023-04-03T06:43:31;1.20;99.90
21481;DHT22;10902;48.158;8.634;2023-04-03T06:45:57;1.10;99.90
21481;DHT22;10902;48.158;8.634;2023-04-03T06:48:23;1.20;99.90
21481;DHT22;10902;48.158;8.634;2023-04-03T06:50:48;1.10;99.90
21481;DHT22;10902;48.158;8.634;2023-04-03T06:53:14;1.20;99.90
21481;DHT22;10902;48.158;8.634;2023-04-03T06:55:40;1.10;99.90
21481;DHT22;10902;48.158;8.634;2023-04-03T06:58:07;1.20;99.90
21481;DHT22;10902;48.158;8.634;2023-04-03T07:00:33;1.20;99.90
21481;DHT22;10902;48.158;8.634;2023-04-03T07:02:59;1.30;99.90
21481;DHT22;10902;48.158;8.634;2023-04-03T07:05:25;1.20;99.90
21481;DHT22;10902;48.158;8.634;2023-04-03T07:07:51;1.30;99.90
21481;DHT22;10902;48.158;8.634;2023-04-03T07:10:17;1.30;99.90
21481;DHT22;10902;48.158;8.634;2023-04-03T07:12:42;1.40;99.90
21481;DHT22;10902;48.158;8.634;2023-04-03T07:15:09;1.30;99.90
21481;DHT22;10902;48.158;8.634;2023-04-03T07:17:34;1.40;99.90
21481;DHT22;10902;48.158;8.634;2023-04-03T07:20:01;1.40;99.90
21481;DHT22;10902;48.158;8.634;2023-04-03T07:22:27;1.40;99.90
21481;DHT22;10902;48.158;8.634;2023-04-03T07:24:53;1.30;99.90
21481;DHT22;10902;48.158;8.634;2023-04-03T07:27:19;1.40;99.90
21481;DHT22;10902;48.158;8.634;2023-04-03T07:29:44;1.50;99.90
21481;DHT22;10902;48.158;8.634;2023-04-03T07:32:10;1.50;99.90
21481;DHT22;10902;48.158;8.634;2023-04-03T07:34:36;1.50;99.90
21481;DHT22;10902;48.158;8.634;2023-04-03T07:37:03;1.80;99.90
21481;DHT22;10902;48.158;8.634;2023-04-03T07:39:29;2.20;99.90
21481;DHT22;10902;48.158;8.634;2023-04-03T07:41:55;2.40;99.90
21481;DHT22;10902;48.158;8.634;2023-04-03T07:44:21;2.80;99.90
21481;DHT22;10902;48.158;8.634;2023-04-03T07:46:47;3.00;99.90
21481;DHT22;10902;48.158;8.634;2023-04-03T07:49:13;3.20;99.90
21481;DHT22;10902;48.158;8.634;2023-04-03T07:51:39;3.50;99.90
21481;DHT22;10902;48.158;8.634;2023-04-03T07:54:06;3.60;99.90
21481;DHT22;10902;48.158;8.634;2023-04-03T07:56:31;3.70;99.90
21481;DHT22;10902;48.158;8.634;2023-04-03T07:58:57;3.50;99.90
21481;DHT22;10902;48.158;8.634;2023-04-03T08:01:23;3.30;99.90
21481;DHT22;10902;48.158;8.634;2023-04-03T08:03:48;3.40;99.90
21481;DHT22;10902;48.158;8.634;2023-04-03T08:06:14;3.40;99.90
21481;DHT22;10902;48.158;8.634;2023-04-03T08:08:40;3.50;99.90
21481;DHT22;10902;48.158;8.634;2023-04-03T08:11:06;3.40;99.90
21481;DHT22;10902;48.158;8.634;2023-04-03T08:13:34;3.50;99.90
21481;DHT22;10902;48.158;8.634;2023-04-03T08:16:11;3.50;99.90
21481;DHT22;10902;48.158;8.634;2023-04-03T08:18:37;3.80;99.90
21481;DHT22;10902;48.158;8.634;2023-04-03T08:21:11;3.70;99.90
21481;DHT22;10902;48.158;8.634;2023-04-03T08:23:38;3.60;99.90
21481;DHT22;10902;48.158;8.634;2023-04-03T08:26:12;3.70;99.90
21481;DHT22;10902;48.158;8.634;2023-04-03T08:28:39;3.60;99.90
21481;DHT22;10902;48.158;8.634;2023-04-03T08:31:08;3.80;99.90
21481;DHT22;10902;48.158;8.634;2023-04-03T08:33:37;3.80;99.90
21481;DHT22;10902;48.158;8.634;2023-04-03T08:36:05;3.70;99.90
21481;DHT22;10902;48.158;8.634;2023-04-03T08:38:31;3.80;99.90
21481;DHT22;10902;48.158;8.634;2023-04-03T08:44:31;3.80;99.90
21481;DHT22;10902;48.158;8.634;2023-04-03T08:49:40;4.30;99.90
21481;DHT22;10902;48.158;8.634;2023-04-03T08:52:15;3.70;99.90
21481;DHT22;10902;48.158;8.634;2023-04-03T08:54:49;3.90;99.90
21481;DHT22;10902;48.158;8.634;2023-04-03T08:57:17;3.90;99.90
21481;DHT22;10902;48.158;8.634;2023-04-03T08:59:43;3.90;99.90
21481;DHT22;10902;48.158;8.634;2023-04-03T09:02:33;3.50;99.90
21481;DHT22;10902;48.158;8.634;2023-04-03T09:05:05;3.80;99.90
21481;DHT22;10902;48.158;8.634;2023-04-03T09:07:37;3.60;99.90
21481;DHT22;10902;48.158;8.634;2023-04-03T09:10:05;3.80;99.90
21481;DHT22;10902;48.158;8.634;2023-04-03T09:12:41;3.80;99.90
21481;DHT22;10902;48.158;8.634;2023-04-03T09:18:13;4.00;99.90
21481;DHT22;10902;48.158;8.634;2023-04-03T09:21:02;3.90;99.90
21481;DHT22;10902;48.158;8.634;2023-04-03T09:23:40;4.00;99.90
21481;DHT22;10902;48.158;8.634;2023-04-03T09:26:22;4.20;99.90
21481;DHT22;10902;48.158;8.634;2023-04-03T09:28:52;4.00;99.90
21481;DHT22;10902;48.158;8.634;2023-04-03T09:31:25;3.80;99.90
21481;DHT22;10902;48.158;8.634;2023-04-03T09:33:59;3.40;99.90
21481;DHT22;10902;48.158;8.634;2023-04-03T09:36:44;3.70;99.90
21481;DHT22;10902;48.158;8.634;2023-04-03T09:39:30;3.70;99.90
21481;DHT22;10902;48.158;8.634;2023-04-03T09:42:05;4.00;99.90
21481;DHT22;10902;48.158;8.634;2023-04-03T09:44:38;4.30;99.90
21481;DHT22;10902;48.158;8.634;2023-04-03T09:47:23;4.40;99.90
21481;DHT22;10902;48.158;8.634;2023-04-03T09:49:49;4.10;99.90
21481;DHT22;10902;48.158;8.634;2023-04-03T09:52:25;4.10;99.90
21481;DHT22;10902;48.158;8.634;2023-04-03T09:54:51;4.40;99.90
21481;DHT22;10902;48.158;8.634;2023-04-03T09:57:17;4.20;99.90
21481;DHT22;10902;48.158;8.634;2023-04-03T09:59:59;4.10;99.90
21481;DHT22;10902;48.158;8.634;2023-04-03T10:02:36;4.00;99.90
21481;DHT22;10902;48.158;8.634;2023-04-03T10:05:04;4.40;99.90
21481;DHT22;10902;48.158;8.634;2023-04-03T10:07:49;4.30;99.90
21481;DHT22;10902;48.158;8.634;2023-04-03T10:12:40;4.20;99.90
21481;DHT22;10902;48.158;8.634;2023-04-03T10:15:26;4.10;99.90
21481;DHT22;10902;48.158;8.634;2023-04-03T10:18:22;4.70;99.90
21481;DHT22;10902;48.158;8.634;2023-04-03T10:20:54;4.60;99.90
21481;DHT22;10902;48.158;8.634;2023-04-03T10:23:28;5.20;99.90
21481;DHT22;10902;48.158;8.634;2023-04-03T10:31:56;4.40;99.90
21481;DHT22;10902;48.158;8.634;2023-04-03T10:34:35;4.40;99.90
21481;DHT22;10902;48.158;8.634;2023-04-03T10:37:26;4.50;99.90
21481;DHT22;10902;48.158;8.634;2023-04-03T10:40:23;4.40;99.90
21481;DHT22;10902;48.158;8.634;2023-04-03T10:45:45;4.10;99.90
21481;DHT22;10902;48.158;8.634;2023-04-03T10:54:23;4.50;99.90
21481;DHT22;10902;48.158;8.634;2023-04-03T10:57:01;5.20;99.90
21481;DHT22;10902;48.158;8.634;2023-04-03T11:02:07;5.60;99.90
21481;DHT22;10902;48.158;8.634;2023-04-03T11:04:40;5.30;99.90
21481;DHT22;10902;48.158;8.634;2023-04-03T11:07:16;5.20;99.90
21481;DHT22;10902;48.158;8.634;2023-04-03T11:09:47;5.10;99.90
21481;DHT22;10902;48.158;8.634;2023-04-03T11:12:28;4.90;99.90
21481;DHT22;10902;48.158;8.634;2023-04-03T11:14:59;4.90;99.90
21481;DHT22;10902;48.158;8.634;2023-04-03T11:17:35;4.70;99.90
21481;DHT22;10902;48.158;8.634;2023-04-03T11:22:41;4.80;99.90
21481;DHT22;10902;48.158;8.634;2023-04-03T11:25:23;5.10;99.90
21481;DHT22;10902;48.158;8.634;2023-04-03T11:27:57;5.20;99.90
21481;DHT22;10902;48.158;8.634;2023-04-03T11:35:57;5.10;99.90
21481;DHT22;10902;48.158;8.634;2023-04-03T11:38:35;5.30;99.90
21481;DHT22;10902;48.158;8.634;2023-04-03T11:41:07;5.00;99.90
21481;DHT22;10902;48.158;8.634;2023-04-03T11:43:36;5.20;99.90
21481;DHT22;10902;48.158;8.634;2023-04-03T11:46:06;5.20;99.90
21481;DHT22;10902;48.158;8.634;2023-04-03T11:51:46;4.90;99.90
21481;DHT22;10902;48.158;8.634;2023-04-03T11:53:47;4.90;99.90
21481;DHT22;10902;48.158;8.634;2023-04-03T12:04:15;4.70;99.90
21481;DHT22;10902;48.158;8.634;2023-04-03T12:10:13;4.80;99.90
21481;DHT22;10902;48.158;8.634;2023-04-03T12:12:30;4.70;99.90
21481;DHT22;10902;48.158;8.634;2023-04-03T12:15:11;4.70;99.90
21481;DHT22;10902;48.158;8.634;2023-04-03T12:17:38;4.50;99.90
21481;DHT22;10902;48.158;8.634;2023-04-03T12:23:32;4.60;99.90
21481;DHT22;10902;48.158;8.634;2023-04-03T12:28:36;4.40;99.90
21481;DHT22;10902;48.158;8.634;2023-04-03T12:31:04;4.40;99.90
21481;DHT22;10902;48.158;8.634;2023-04-03T12:33:57;4.50;99.90
21481;DHT22;10902;48.158;8.634;2023-04-03T12:36:37;4.30;99.90
21481;DHT22;10902;48.158;8.634;2023-04-03T12:47:42;4.60;99.90
21481;DHT22;10902;48.158;8.634;2023-04-03T12:50:24;4.30;99.90
21481;DHT22;10902;48.158;8.634;2023-04-03T12:53:19;4.40;99.90
21481;DHT22;10902;48.158;8.634;2023-04-03T12:55:46;4.40;99.90
21481;DHT22;10902;48.158;8.634;2023-04-03T12:58:27;4.50;99.90
21481;DHT22;10902;48.158;8.634;2023-04-03T13:01:01;4.60;99.90
21481;DHT22;10902;48.158;8.634;2023-04-03T13:03:27;4.50;99.90
21481;DHT22;10902;48.158;8.634;2023-04-03T13:06:00;4.60;99.90
21481;DHT22;10902;48.158;8.634;2023-04-03T13:08:27;4.60;99.90
21481;DHT22;10902;48.158;8.634;2023-04-03T13:11:08;4.60;99.90
21481;DHT22;10902;48.158;8.634;2023-04-03T13:13:35;4.50;99.90
21481;DHT22;10902;48.158;8.634;2023-04-03T13:16:09;4.60;99.90
21481;DHT22;10902;48.158;8.634;2023-04-03T13:18:37;4.50;99.90
21481;DHT22;10902;48.158;8.634;2023-04-03T13:21:11;4.50;99.90
21481;DHT22;10902;48.158;8.634;2023-04-03T13:23:40;4.40;99.90
21481;DHT22;10902;48.158;8.634;2023-04-03T13:26:08;4.80;99.90
21481;DHT22;10902;48.158;8.634;2023-04-03T13:28:35;5.20;99.90
21481;DHT22;10902;48.158;8.634;2023-04-03T13:33:33;5.20;99.90
21481;DHT22;10902;48.158;8.634;2023-04-03T13:36:18;5.30;99.90
21481;DHT22;10902;48.158;8.634;2023-04-03T13:38:44;5.30;99.90
21481;DHT22;10902;48.158;8.634;2023-04-03T13:41:27;5.10;99.90
21481;DHT22;10902;48.158;8.634;2023-04-03T13:43:54;4.90;99.90
21481;DHT22;10902;48.158;8.634;2023-04-03T13:46:24;4.80;99.90
21481;DHT22;10902;48.158;8.634;2023-04-03T13:48:53;4.60;99.90
21481;DHT22;10902;48.158;8.634;2023-04-03T13:51:25;4.60;99.90
21481;DHT22;10902;48.158;8.634;2023-04-03T13:53:57;4.70;99.90
21481;DHT22;10902;48.158;8.634;2023-04-03T13:56:31;4.80;99.90
21481;DHT22;10902;48.158;8.634;2023-04-03T14:01:46;4.70;99.90
21481;DHT22;10902;48.158;8.634;2023-04-03T14:07:03;4.40;99.90
21481;DHT22;10902;48.158;8.634;2023-04-03T14:09:29;4.50;99.90
21481;DHT22;10902;48.158;8.634;2023-04-03T14:12:02;4.70;99.90
21481;DHT22;10902;48.158;8.634;2023-04-03T14:14:32;4.40;99.90
21481;DHT22;10902;48.158;8.634;2023-04-03T14:17:01;4.40;99.90
21481;DHT22;10902;48.158;8.634;2023-04-03T14:19:33;4.30;99.90
21481;DHT22;10902;48.158;8.634;2023-04-03T14:22:00;4.20;99.90
21481;DHT22;10902;48.158;8.634;2023-04-03T14:24:26;4.30;99.90
21481;DHT22;10902;48.158;8.634;2023-04-03T14:26:54;4.20;99.90
21481;DHT22;10902;48.158;8.634;2023-04-03T14:29:21;4.30;99.90
21481;DHT22;10902;48.158;8.634;2023-04-03T14:31:47;4.50;99.90
21481;DHT22;10902;48.158;8.634;2023-04-03T14:34:13;4.70;99.90
21481;DHT22;10902;48.158;8.634;2023-04-03T14:36:41;4.80;99.90
21481;DHT22;10902;48.158;8.634;2023-04-03T14:39:10;4.50;99.90
21481;DHT22;10902;48.158;8.634;2023-04-03T14:41:36;4.40;99.90
21481;DHT22;10902;48.158;8.634;2023-04-03T14:44:02;4.30;99.90
21481;DHT22;10902;48.158;8.634;2023-04-03T14:46:34;4.30;99.90
21481;DHT22;10902;48.158;8.634;2023-04-03T14:49:00;4.30;99.90
21481;DHT22;10902;48.158;8.634;2023-04-03T14:51:26;4.10;99.90
21481;DHT22;10902;48.158;8.634;2023-04-03T14:53:52;3.90;99.90
21481;DHT22;10902;48.158;8.634;2023-04-03T14:56:27;4.00;99.90
21481;DHT22;10902;48.158;8.634;2023-04-03T14:58:57;4.10;99.90
21481;DHT22;10902;48.158;8.634;2023-04-03T15:01:23;4.40;99.90
21481;DHT22;10902;48.158;8.634;2023-04-03T15:03:49;4.30;99.90
21481;DHT22;10902;48.158;8.634;2023-04-03T15:06:15;4.20;99.90
21481;DHT22;10902;48.158;8.634;2023-04-03T15:08:43;4.10;99.90
21481;DHT22;10902;48.158;8.634;2023-04-03T15:11:10;4.00;99.90
21481;DHT22;10902;48.158;8.634;2023-04-03T15:13:36;4.00;99.90
21481;DHT22;10902;48.158;8.634;2023-04-03T15:16:02;4.10;99.90
21481;DHT22;10902;48.158;8.634;2023-04-03T15:18:32;3.90;99.90
21481;DHT22;10902;48.158;8.634;2023-04-03T15:21:01;4.00;99.90
21481;DHT22;10902;48.158;8.634;2023-04-03T15:23:27;3.90;99.90
21481;DHT22;10902;48.158;8.634;2023-04-03T15:25:54;4.10;99.90
21481;DHT22;10902;48.158;8.634;2023-04-03T15:28:25;4.10;99.90
21481;DHT22;10902;48.158;8.634;2023-04-03T15:30:52;4.30;99.90
21481;DHT22;10902;48.158;8.634;2023-04-03T15:33:18;4.20;99.90
21481;DHT22;10902;48.158;8.634;2023-04-03T15:35:44;4.10;99.90
21481;DHT22;10902;48.158;8.634;2023-04-03T15:38:10;4.00;99.90
21481;DHT22;10902;48.158;8.634;2023-04-03T15:40:36;4.10;99.90
21481;DHT22;10902;48.158;8.634;2023-04-03T15:43:02;4.10;99.90
21481;DHT22;10902;48.158;8.634;2023-04-03T15:45:31;4.00;99.90
21481;DHT22;10902;48.158;8.634;2023-04-03T15:47:57;4.00;99.90
21481;DHT22;10902;48.158;8.634;2023-04-03T15:50:23;4.00;99.90
21481;DHT22;10902;48.158;8.634;2023-04-03T15:52:50;3.90;99.90
21481;DHT22;10902;48.158;8.634;2023-04-03T15:55:21;4.00;99.90
21481;DHT22;10902;48.158;8.634;2023-04-03T15:57:47;4.00;99.90
21481;DHT22;10902;48.158;8.634;2023-04-03T16:00:13;3.80;99.90
21481;DHT22;10902;48.158;8.634;2023-04-03T16:02:39;3.90;99.90
21481;DHT22;10902;48.158;8.634;2023-04-03T16:05:05;3.70;99.90
21481;DHT22;10902;48.158;8.634;2023-04-03T16:07:31;3.60;99.90
21481;DHT22;10902;48.158;8.634;2023-04-03T16:09:57;3.60;99.90
21481;DHT22;10902;48.158;8.634;2023-04-03T16:12:22;3.60;99.90
21481;DHT22;10902;48.158;8.634;2023-04-03T16:14:48;3.60;99.90
21481;DHT22;10902;48.158;8.634;2023-04-03T16:17:13;3.50;99.90
21481;DHT22;10902;48.158;8.634;2023-04-03T16:19:39;3.50;99.90
21481;DHT22;10902;48.158;8.634;2023-04-03T16:22:05;3.50;99.90
21481;DHT22;10902;48.158;8.634;2023-04-03T16:24:30;3.70;99.90
21481;DHT22;10902;48.158;8.634;2023-04-03T16:26:57;3.70;99.90
21481;DHT22;10902;48.158;8.634;2023-04-03T16:29:23;3.80;99.90
21481;DHT22;10902;48.158;8.634;2023-04-03T16:31:49;3.90;99.90
21481;DHT22;10902;48.158;8.634;2023-04-03T16:34:15;3.80;99.90
21481;DHT22;10902;48.158;8.634;2023-04-03T16:36:41;3.60;99.90
21481;DHT22;10902;48.158;8.634;2023-04-03T16:39:06;3.50;99.90
21481;DHT22;10902;48.158;8.634;2023-04-03T16:41:35;3.50;99.90
21481;DHT22;10902;48.158;8.634;2023-04-03T16:44:00;3.50;99.90
21481;DHT22;10902;48.158;8.634;2023-04-03T16:46:26;3.40;99.90
21481;DHT22;10902;48.158;8.634;2023-04-03T16:48:52;3.40;99.90
21481;DHT22;10902;48.158;8.634;2023-04-03T16:51:17;3.40;99.90
21481;DHT22;10902;48.158;8.634;2023-04-03T16:53:43;3.40;99.90
21481;DHT22;10902;48.158;8.634;2023-04-03T16:56:08;3.40;99.90
21481;DHT22;10902;48.158;8.634;2023-04-03T16:58:34;3.50;99.90
21481;DHT22;10902;48.158;8.634;2023-04-03T17:01:11;3.40;99.90
21481;DHT22;10902;48.158;8.634;2023-04-03T17:03:39;3.40;99.90
21481;DHT22;10902;48.158;8.634;2023-04-03T17:06:04;3.40;99.90
21481;DHT22;10902;48.158;8.634;2023-04-03T17:08:30;3.40;99.90
21481;DHT22;10902;48.158;8.634;2023-04-03T17:10:56;3.30;99.90
21481;DHT22;10902;48.158;8.634;2023-04-03T17:13:22;3.30;99.90
21481;DHT22;10902;48.158;8.634;2023-04-03T17:15:47;3.40;99.90
21481;DHT22;10902;48.158;8.634;2023-04-03T17:18:13;3.40;99.90